createdAt,value
2018-12-20T00:00:15.994Z,29.80
2018-12-20T00:02:43.563Z,30.27
2018-12-20T00:05:11.192Z,30.47
2018-12-20T00:07:38.687Z,30.35
2018-12-20T00:10:06.414Z,29.33
2018-12-20T00:12:34.023Z,28.73
2018-12-20T00:15:01.795Z,26.68
2018-12-20T00:17:50.500Z,27.80
2018-12-20T00:20:18.084Z,26.97
2018-12-20T00:22:45.650Z,26.97
2018-12-20T00:25:13.219Z,26.33
2018-12-20T00:27:40.869Z,26.67
2018-12-20T00:30:08.374Z,27.30
2018-12-20T00:32:35.850Z,26.17
2018-12-20T00:35:03.368Z,27.07
2018-12-20T00:37:30.899Z,26.67
2018-12-20T00:40:06.270Z,26.70
2018-12-20T00:42:28.655Z,25.23
2018-12-20T00:44:56.140Z,26.00
2018-12-20T00:47:23.605Z,24.85
2018-12-20T00:49:51.209Z,26.60
2018-12-20T00:52:18.740Z,25.73
2018-12-20T00:54:46.177Z,25.60
2018-12-20T00:57:13.748Z,24.57
2018-12-20T00:59:41.459Z,23.73
2018-12-20T01:02:09.070Z,23.97
2018-12-20T01:04:36.633Z,24.63
2018-12-20T01:07:04.221Z,23.67
2018-12-20T01:09:31.815Z,25.70
2018-12-20T01:11:59.390Z,25.48
2018-12-20T01:14:26.999Z,25.53
2018-12-20T01:16:54.442Z,21.77
2018-12-20T01:19:21.936Z,26.37
2018-12-20T01:21:49.681Z,24.93
2018-12-20T01:24:17.242Z,25.52
2018-12-20T01:26:44.753Z,25.53
2018-12-20T01:29:12.264Z,23.27
2018-12-20T01:31:39.705Z,24.95
2018-12-20T01:34:07.213Z,24.77
2018-12-20T01:36:34.843Z,24.87
2018-12-20T01:39:02.888Z,24.87
2018-12-20T01:41:30.320Z,25.87
2018-12-20T01:43:57.824Z,23.80
2018-12-20T01:46:25.496Z,24.20
2018-12-20T01:48:53.067Z,23.83
2018-12-20T01:51:20.690Z,23.18
2018-12-20T01:53:48.522Z,23.80
2018-12-20T01:56:16.149Z,27.10
2018-12-20T01:58:43.835Z,24.63
2018-12-20T02:01:11.619Z,24.97
2018-12-20T02:03:39.140Z,23.25
2018-12-20T02:06:06.585Z,24.37
2018-12-20T02:08:34.072Z,25.15
2018-12-20T02:11:01.566Z,24.23
2018-12-20T02:13:29.079Z,24.10
2018-12-20T02:15:56.580Z,24.40
2018-12-20T02:18:24.125Z,25.07
2018-12-20T02:20:51.718Z,25.40
2018-12-20T02:23:19.410Z,23.57
2018-12-20T02:25:46.984Z,24.82
2018-12-20T02:28:14.530Z,24.53
2018-12-20T02:30:42.078Z,25.07
2018-12-20T02:33:09.540Z,25.08
2018-12-20T02:35:37.064Z,25.37
2018-12-20T02:38:04.885Z,23.77
2018-12-20T02:40:32.477Z,25.57
2018-12-20T02:43:00.179Z,24.73
2018-12-20T02:45:27.783Z,26.65
2018-12-20T02:47:55.448Z,27.10
2018-12-20T02:50:22.953Z,25.47
2018-12-20T02:52:50.515Z,26.10
2018-12-20T02:55:18.362Z,24.17
2018-12-20T02:57:46.182Z,25.50
2018-12-20T03:00:13.767Z,25.23
2018-12-20T03:02:41.458Z,24.60
2018-12-20T03:05:08.970Z,23.98
2018-12-20T03:07:36.462Z,24.37
2018-12-20T03:10:03.957Z,24.60
2018-12-20T03:12:31.524Z,23.97
2018-12-20T03:14:59.081Z,22.60
2018-12-20T03:17:26.528Z,22.97
2018-12-20T03:19:53.988Z,24.47
2018-12-20T03:22:21.670Z,24.72
2018-12-20T03:24:49.227Z,25.40
2018-12-20T03:27:16.748Z,24.45
2018-12-20T03:29:44.387Z,22.97
2018-12-20T03:32:12.241Z,25.43
2018-12-20T03:34:39.896Z,23.87
2018-12-20T03:37:07.448Z,25.70
2018-12-20T03:39:34.896Z,24.57
2018-12-20T03:42:02.413Z,23.15
2018-12-20T03:44:30.019Z,23.47
2018-12-20T03:46:57.570Z,23.18
2018-12-20T03:49:25.192Z,23.63
2018-12-20T03:51:52.895Z,23.80
2018-12-20T03:54:20.441Z,25.07
2018-12-20T03:56:48.055Z,23.90
2018-12-20T03:59:15.941Z,24.90
2018-12-20T04:01:43.473Z,23.67
2018-12-20T04:04:10.954Z,24.25
2018-12-20T04:06:38.452Z,24.73
2018-12-20T04:09:06.237Z,23.15
2018-12-20T04:11:33.778Z,24.00
2018-12-20T04:14:01.425Z,25.63
2018-12-20T04:16:28.904Z,24.00
2018-12-20T04:18:56.601Z,25.17
2018-12-20T04:21:24.113Z,23.77
2018-12-20T04:23:51.825Z,24.87
2018-12-20T04:26:19.475Z,24.27
2018-12-20T04:28:47.045Z,22.17
2018-12-20T04:31:14.887Z,21.37
2018-12-20T04:33:42.701Z,22.20
2018-12-20T04:36:10.322Z,22.00
2018-12-20T04:38:38.047Z,21.97
2018-12-20T04:41:05.685Z,22.73
2018-12-20T04:43:33.233Z,22.63
2018-12-20T04:46:00.731Z,22.33
2018-12-20T04:48:28.263Z,21.10
2018-12-20T04:50:55.727Z,22.97
2018-12-20T04:53:23.173Z,20.80
2018-12-20T04:55:50.645Z,21.73
2018-12-20T04:58:18.120Z,21.55
2018-12-20T05:00:46.252Z,21.93
2018-12-20T05:03:13.940Z,20.88
2018-12-20T05:05:41.397Z,22.17
2018-12-20T05:08:08.941Z,19.95
2018-12-20T05:10:36.464Z,19.03
2018-12-20T05:13:03.897Z,21.25
2018-12-20T05:15:31.347Z,22.17
2018-12-20T05:17:58.846Z,17.73
2018-12-20T05:20:26.317Z,20.93
2018-12-20T05:22:53.885Z,19.80
2018-12-20T05:25:21.414Z,19.23
2018-12-20T05:27:49.081Z,17.48
2018-12-20T05:30:16.679Z,20.53
2018-12-20T05:32:44.347Z,19.37
2018-12-20T05:35:12.142Z,20.63
2018-12-20T05:37:39.896Z,16.23
2018-12-20T05:40:07.520Z,19.52
2018-12-20T05:42:35.011Z,17.53
2018-12-20T05:45:02.520Z,20.30
2018-12-20T05:47:30.158Z,17.97
2018-12-20T05:49:57.682Z,19.40
2018-12-20T05:52:25.125Z,19.43
2018-12-20T05:54:52.556Z,20.23
2018-12-20T05:57:20.017Z,18.53
2018-12-20T05:59:47.483Z,20.40
2018-12-20T06:02:15.015Z,17.80
2018-12-20T06:04:42.763Z,19.23
2018-12-20T06:07:10.327Z,20.63
2018-12-20T06:09:37.904Z,18.65
2018-12-20T06:12:05.614Z,19.53
2018-12-20T06:14:33.248Z,21.10
2018-12-20T06:17:00.904Z,18.60
2018-12-20T06:19:28.658Z,20.33
2018-12-20T06:21:56.116Z,20.43
2018-12-20T06:24:23.563Z,20.30
2018-12-20T06:26:50.996Z,19.80
2018-12-20T06:29:18.436Z,19.67
2018-12-20T06:31:45.874Z,20.37
2018-12-20T06:34:13.309Z,21.48
2018-12-20T06:36:40.770Z,20.37
2018-12-20T06:39:08.213Z,19.50
2018-12-20T06:41:35.637Z,20.43
2018-12-20T06:44:07.136Z,19.80
2018-12-20T06:46:32.502Z,21.70
2018-12-20T06:48:59.954Z,20.70
2018-12-20T06:51:27.389Z,20.77
2018-12-20T06:53:54.913Z,20.57
2018-12-20T06:56:22.353Z,21.87
2018-12-20T06:58:49.792Z,20.60
2018-12-20T07:01:17.240Z,19.83
2018-12-20T07:03:44.683Z,20.80
2018-12-20T07:06:12.117Z,20.90
2018-12-20T07:08:39.564Z,20.05
2018-12-20T07:11:06.999Z,20.37
2018-12-20T07:13:34.439Z,18.42
2018-12-20T07:16:01.872Z,21.20
2018-12-20T07:18:29.396Z,20.40
2018-12-20T07:20:56.834Z,19.87
2018-12-20T07:23:24.271Z,20.77
2018-12-20T07:25:51.717Z,21.23
2018-12-20T07:28:19.164Z,20.52
2018-12-20T07:30:46.609Z,20.10
2018-12-20T07:33:14.048Z,20.27
2018-12-20T07:35:41.485Z,19.33
2018-12-20T07:38:08.941Z,19.62
2018-12-20T07:40:38.159Z,20.47
2018-12-20T07:43:05.727Z,18.82
2018-12-20T07:45:33.154Z,20.07
2018-12-20T07:48:00.632Z,20.70
2018-12-20T07:50:28.080Z,19.33
2018-12-20T07:52:55.532Z,18.77
2018-12-20T07:55:22.989Z,19.17
2018-12-20T07:57:50.438Z,18.23
2018-12-20T08:00:17.885Z,18.27
2018-12-20T08:02:45.333Z,19.35
2018-12-20T08:05:12.781Z,17.30
2018-12-20T08:07:40.221Z,17.82
2018-12-20T08:10:07.680Z,17.63
2018-12-20T08:12:35.108Z,17.62
2018-12-20T08:15:02.559Z,17.90
2018-12-20T08:17:29.993Z,17.95
2018-12-20T08:19:57.446Z,17.80
2018-12-20T08:22:24.888Z,17.52
2018-12-20T08:24:52.329Z,18.17
2018-12-20T08:27:19.823Z,16.15
2018-12-20T08:29:47.383Z,19.40
2018-12-20T08:32:14.892Z,17.90
2018-12-20T08:34:42.336Z,17.70
2018-12-20T08:37:09.801Z,20.60
2018-12-20T08:39:37.239Z,20.63
2018-12-20T08:42:04.696Z,19.73
2018-12-20T08:44:32.132Z,17.85
2018-12-20T08:46:59.577Z,18.10
2018-12-20T08:49:27.013Z,19.42
2018-12-20T08:51:54.452Z,18.93
2018-12-20T08:54:21.892Z,19.62
2018-12-20T08:56:49.328Z,17.83
2018-12-20T08:59:16.782Z,16.97
2018-12-20T09:01:44.212Z,16.70
2018-12-20T09:04:11.669Z,15.40
2018-12-20T09:06:39.106Z,19.20
2018-12-20T09:09:06.544Z,19.05
2018-12-20T09:11:33.986Z,18.57
2018-12-20T09:14:01.438Z,17.92
2018-12-20T09:16:28.868Z,19.17
2018-12-20T09:18:56.366Z,18.67
2018-12-20T09:21:23.855Z,19.50
2018-12-20T09:23:51.285Z,19.10
2018-12-20T09:26:18.729Z,18.67
2018-12-20T09:28:46.169Z,20.02
2018-12-20T09:31:13.609Z,18.70
2018-12-20T09:33:41.056Z,17.50
2018-12-20T09:36:08.496Z,17.80
2018-12-20T09:38:35.965Z,19.48
2018-12-20T09:41:03.439Z,19.43
2018-12-20T09:43:30.933Z,19.27
2018-12-20T09:45:58.368Z,18.90
2018-12-20T09:48:25.804Z,19.80
2018-12-20T09:50:53.257Z,20.13
2018-12-20T09:53:20.717Z,20.32
2018-12-20T09:55:48.156Z,18.43
2018-12-20T09:58:15.602Z,19.70
2018-12-20T10:00:43.045Z,18.73
2018-12-20T10:03:10.475Z,19.52
2018-12-20T10:05:37.940Z,18.60
2018-12-20T10:08:05.372Z,20.17
2018-12-20T10:10:32.831Z,18.73
2018-12-20T10:13:00.282Z,19.52
2018-12-20T10:15:27.731Z,19.83
2018-12-20T10:17:55.169Z,20.45
2018-12-20T10:20:22.604Z,17.20
2018-12-20T10:22:50.045Z,20.30
2018-12-20T10:25:17.484Z,19.07
2018-12-20T10:27:44.924Z,18.87
2018-12-20T10:30:12.360Z,18.20
2018-12-20T10:32:39.796Z,18.77
2018-12-20T10:35:07.232Z,18.10
2018-12-20T10:37:34.668Z,19.82
2018-12-20T10:40:02.121Z,18.80
2018-12-20T10:42:29.557Z,18.52
2018-12-20T10:44:57.010Z,18.17
2018-12-20T10:47:29.144Z,19.55
2018-12-20T10:49:55.156Z,18.27
2018-12-20T10:52:22.593Z,19.37
2018-12-20T10:54:50.038Z,18.60
2018-12-20T10:57:17.473Z,17.92
2018-12-20T10:59:44.921Z,19.13
2018-12-20T11:02:17.737Z,19.42
2018-12-20T11:04:50.583Z,19.93
2018-12-20T11:07:23.404Z,17.87
2018-12-20T11:09:56.261Z,19.33
2018-12-20T11:12:29.312Z,18.20
2018-12-20T11:14:56.760Z,19.00
2018-12-20T11:17:24.193Z,18.42
2018-12-20T11:19:51.645Z,19.13
2018-12-20T11:22:19.080Z,19.32
2018-12-20T11:24:46.526Z,18.73
2018-12-20T11:27:14.020Z,18.12
2018-12-20T11:29:41.492Z,18.07
2018-12-20T11:32:08.949Z,17.92
2018-12-20T11:34:36.404Z,17.07
2018-12-20T11:37:03.841Z,18.77
2018-12-20T11:39:31.289Z,17.30
2018-12-20T11:41:58.749Z,18.67
2018-12-20T11:44:26.265Z,17.57
2018-12-20T11:46:53.700Z,19.05
2018-12-20T11:49:21.152Z,18.20
2018-12-20T11:51:48.605Z,18.23
2018-12-20T11:54:16.024Z,18.87
2018-12-20T11:56:43.532Z,17.02
2018-12-20T11:59:10.976Z,17.17
2018-12-20T12:01:38.428Z,20.07
2018-12-20T12:04:05.940Z,16.43
2018-12-20T12:06:33.381Z,18.85
2018-12-20T12:09:00.823Z,17.80
2018-12-20T12:11:28.264Z,17.95
2018-12-20T12:13:55.704Z,17.70
2018-12-20T12:16:23.149Z,17.92
2018-12-20T12:18:50.582Z,18.03
2018-12-20T12:21:18.035Z,17.80
2018-12-20T12:23:45.491Z,17.70
2018-12-20T12:26:12.929Z,17.35
2018-12-20T12:28:40.368Z,17.57
2018-12-20T12:31:07.809Z,17.40
2018-12-20T12:33:35.261Z,18.33
2018-12-20T12:36:02.708Z,17.85
2018-12-20T12:38:30.146Z,17.70
2018-12-20T12:40:57.608Z,17.98
2018-12-20T12:43:25.060Z,18.93
2018-12-20T12:45:52.505Z,17.12
2018-12-20T12:48:19.938Z,18.57
2018-12-20T12:50:47.391Z,18.32
2018-12-20T12:53:14.845Z,18.27
2018-12-20T12:55:42.293Z,17.23
2018-12-20T12:58:09.772Z,18.73
2018-12-20T13:00:37.220Z,19.50
2018-12-20T13:03:04.668Z,18.13
2018-12-20T13:05:32.114Z,18.35
2018-12-20T13:07:59.553Z,18.77
2018-12-20T13:10:26.991Z,18.27
2018-12-20T13:12:54.444Z,18.40
2018-12-20T13:15:21.895Z,18.20
2018-12-20T13:17:49.321Z,19.13
2018-12-20T13:20:16.769Z,18.20
2018-12-20T13:22:44.220Z,17.80
2018-12-20T13:25:11.705Z,18.77
2018-12-20T13:27:39.173Z,18.27
2018-12-20T13:30:06.618Z,16.57
2018-12-20T13:32:34.066Z,16.83
2018-12-20T13:35:01.517Z,17.23
2018-12-20T13:37:29.032Z,18.67
2018-12-20T13:39:56.468Z,17.57
2018-12-20T13:42:23.916Z,18.63
2018-12-20T13:44:51.360Z,18.15
2018-12-20T13:47:18.876Z,18.90
2018-12-20T13:49:46.523Z,17.57
2018-12-20T13:52:13.972Z,18.37
2018-12-20T13:54:41.414Z,18.77
2018-12-20T13:57:08.852Z,17.43
2018-12-20T13:59:36.298Z,18.73
2018-12-20T14:02:03.749Z,19.37
2018-12-20T14:04:31.188Z,18.97
2018-12-20T14:06:58.644Z,18.62
2018-12-20T14:09:27.045Z,18.37
2018-12-20T14:11:54.530Z,18.30
2018-12-20T14:14:21.984Z,18.60
2018-12-20T14:16:49.421Z,20.37
2018-12-20T14:19:17.104Z,18.67
2018-12-20T14:21:44.540Z,19.87
2018-12-20T14:24:11.990Z,18.00
2018-12-20T14:26:39.436Z,19.07
2018-12-20T14:29:06.868Z,19.60
2018-12-20T14:31:34.393Z,18.60
2018-12-20T14:34:01.837Z,19.93
2018-12-20T14:36:29.307Z,19.70
2018-12-20T14:38:56.790Z,20.20
2018-12-20T14:41:24.240Z,19.90
2018-12-20T14:43:51.694Z,20.73
2018-12-20T14:46:19.136Z,21.45
2018-12-20T14:48:46.598Z,25.53
2018-12-20T14:51:14.029Z,26.25
2018-12-20T14:53:41.477Z,23.37
2018-12-20T14:56:08.925Z,25.08
2018-12-20T14:58:36.360Z,21.73
2018-12-20T15:01:03.823Z,27.07
2018-12-20T15:03:31.874Z,23.70
2018-12-20T15:05:59.319Z,21.57
2018-12-20T15:08:26.759Z,21.17
2018-12-20T15:10:54.196Z,20.60
2018-12-20T15:13:21.633Z,22.02
2018-12-20T15:15:49.072Z,22.10
2018-12-20T15:18:16.520Z,20.65
2018-12-20T15:20:44.040Z,20.07
2018-12-20T15:23:11.484Z,19.63
2018-12-20T15:25:39.071Z,19.10
2018-12-20T15:28:06.512Z,18.27
2018-12-20T15:30:33.948Z,18.63
2018-12-20T15:33:01.404Z,18.15
2018-12-20T15:35:28.898Z,18.37
2018-12-20T15:37:56.336Z,18.48
2018-12-20T15:40:23.777Z,18.27
2018-12-20T15:42:51.229Z,17.32
2018-12-20T15:45:18.846Z,17.60
2018-12-20T15:47:46.353Z,17.53
2018-12-20T15:50:13.778Z,19.33
2018-12-20T15:52:41.229Z,18.87
2018-12-20T15:55:08.669Z,20.05
2018-12-20T15:57:36.109Z,18.20
2018-12-20T16:00:03.562Z,19.70
2018-12-20T16:02:31.001Z,18.20
2018-12-20T16:04:58.438Z,18.73
2018-12-20T16:07:25.880Z,18.57
2018-12-20T16:09:53.336Z,19.33
2018-12-20T16:12:20.774Z,19.13
2018-12-20T16:14:48.216Z,18.62
2018-12-20T16:17:15.660Z,20.70
2018-12-20T16:19:43.100Z,19.30
2018-12-20T16:22:10.548Z,18.73
2018-12-20T16:24:38.002Z,18.95
2018-12-20T16:27:05.448Z,20.17
2018-12-20T16:29:32.883Z,18.52
2018-12-20T16:32:00.329Z,19.13
2018-12-20T16:34:27.773Z,19.07
2018-12-20T16:36:55.219Z,18.97
2018-12-20T16:39:22.700Z,18.77
2018-12-20T16:41:50.148Z,18.73
2018-12-20T16:44:17.594Z,19.65
2018-12-20T16:46:45.097Z,18.80
2018-12-20T16:49:13.777Z,19.32
2018-12-20T16:51:41.557Z,19.20
2018-12-20T16:54:09.004Z,19.07
2018-12-20T16:56:36.436Z,20.93
2018-12-20T16:59:03.878Z,19.45
2018-12-20T17:01:31.328Z,20.33
2018-12-20T17:03:58.772Z,19.90
2018-12-20T17:06:26.215Z,19.67
2018-12-20T17:08:53.725Z,20.50
2018-12-20T17:11:21.164Z,20.17
2018-12-20T17:13:48.603Z,19.92
2018-12-20T17:16:16.043Z,19.40
2018-12-20T17:18:43.489Z,19.48
2018-12-20T17:21:10.976Z,19.30
2018-12-20T17:23:38.420Z,20.70
2018-12-20T17:26:05.928Z,21.60
2018-12-20T17:28:33.369Z,20.52
2018-12-20T17:31:00.834Z,19.73
2018-12-20T17:33:28.276Z,18.67
2018-12-20T17:35:55.880Z,19.53
2018-12-20T17:38:23.316Z,18.65
2018-12-20T17:40:50.761Z,19.80
2018-12-20T17:43:18.205Z,20.40
2018-12-20T17:45:45.632Z,19.83
2018-12-20T17:48:13.123Z,19.75
2018-12-20T17:50:40.535Z,20.07
2018-12-20T17:53:07.971Z,19.40
2018-12-20T17:55:35.425Z,19.97
2018-12-20T17:58:02.861Z,19.50
2018-12-20T18:00:30.307Z,19.67
2018-12-20T18:02:57.765Z,19.55
2018-12-20T18:05:25.201Z,19.73
2018-12-20T18:07:52.648Z,20.37
2018-12-20T18:10:20.076Z,19.33
2018-12-20T18:12:47.516Z,20.95
2018-12-20T18:15:14.961Z,18.87
2018-12-20T18:17:42.437Z,20.80
2018-12-20T18:20:09.895Z,21.90
2018-12-20T18:22:37.332Z,19.90
2018-12-20T18:25:04.771Z,21.70
2018-12-20T18:27:32.225Z,19.80
2018-12-20T18:29:59.664Z,19.90
2018-12-20T18:32:27.123Z,19.62
2018-12-20T18:34:54.676Z,19.17
2018-12-20T18:37:22.120Z,20.27
2018-12-20T18:39:49.579Z,19.53
2018-12-20T18:42:17.032Z,19.80
2018-12-20T18:44:44.524Z,22.80
2018-12-20T18:47:11.960Z,20.55
2018-12-20T18:49:47.322Z,19.97
2018-12-20T18:52:08.848Z,24.77
2018-12-20T18:54:36.288Z,20.85
2018-12-20T18:57:03.731Z,18.57
2018-12-20T18:59:31.260Z,20.60
2018-12-20T19:01:58.704Z,21.33
2018-12-20T19:04:26.153Z,18.42
2018-12-20T19:06:53.592Z,19.90
2018-12-20T19:09:21.097Z,20.17
2018-12-20T19:11:48.541Z,20.23
2018-12-20T19:14:16.358Z,18.37
2018-12-20T19:16:44.009Z,17.70
2018-12-20T19:19:11.460Z,17.57
2018-12-20T19:21:38.984Z,18.60
2018-12-20T19:24:06.512Z,17.90
2018-12-20T19:26:33.961Z,19.00
2018-12-20T19:29:01.409Z,18.10
2018-12-20T19:31:28.840Z,18.20
2018-12-20T19:33:56.285Z,17.62
2018-12-20T19:36:23.737Z,17.67
2018-12-20T19:38:51.200Z,16.37
2018-12-20T19:41:18.650Z,17.67
2018-12-20T19:43:46.092Z,17.00
2018-12-20T19:46:13.525Z,16.97
2018-12-20T19:48:40.964Z,17.55
2018-12-20T19:51:08.418Z,16.53
2018-12-20T19:53:35.868Z,16.60
2018-12-20T19:56:03.312Z,16.43
2018-12-20T19:58:30.760Z,17.27
2018-12-20T20:00:58.213Z,19.00
2018-12-20T20:03:25.683Z,17.02
2018-12-20T20:05:53.125Z,17.70
2018-12-20T20:08:20.572Z,17.12
2018-12-20T20:10:48.017Z,17.97
2018-12-20T20:13:19.212Z,18.03
2018-12-20T20:15:44.888Z,17.23
2018-12-20T20:18:12.339Z,14.63
2018-12-20T20:20:39.776Z,16.73
2018-12-20T20:23:07.227Z,16.32
2018-12-20T20:25:34.672Z,13.93
2018-12-20T20:28:02.112Z,14.43
2018-12-20T20:30:29.544Z,13.20
2018-12-20T20:32:56.986Z,13.40
2018-12-20T20:35:24.425Z,15.93
2018-12-20T20:37:51.867Z,13.72
2018-12-20T20:40:19.305Z,11.03
2018-12-20T20:42:46.812Z,9.60
2018-12-20T20:45:14.230Z,10.40
2018-12-20T20:47:41.659Z,9.40
2018-12-20T20:50:09.098Z,9.83
2018-12-20T20:52:36.569Z,8.45
2018-12-20T20:55:05.758Z,8.73
2018-12-20T20:57:33.331Z,8.60
2018-12-20T21:00:00.778Z,8.43
2018-12-20T21:02:28.214Z,8.28
2018-12-20T21:04:55.644Z,9.50
2018-12-20T21:07:23.088Z,9.48
2018-12-20T21:09:50.526Z,9.83
2018-12-20T21:12:22.769Z,9.00
2018-12-20T21:14:52.430Z,8.90
2018-12-20T21:17:16.817Z,9.00
2018-12-20T21:19:44.264Z,9.78
2018-12-20T21:22:11.792Z,9.43
2018-12-20T21:24:39.231Z,9.55
2018-12-20T21:27:06.677Z,9.53
2018-12-20T21:29:34.111Z,9.65
2018-12-20T21:32:01.548Z,8.63
2018-12-20T21:34:28.998Z,9.33
2018-12-20T21:36:56.428Z,9.27
2018-12-20T21:39:23.865Z,9.25
2018-12-20T21:41:51.307Z,9.30
2018-12-20T21:44:18.747Z,10.03
2018-12-20T21:46:46.189Z,8.93
2018-12-20T21:49:13.635Z,9.35
2018-12-20T21:51:41.084Z,8.57
2018-12-20T21:54:08.512Z,8.38
2018-12-20T21:56:35.992Z,8.50
2018-12-20T21:59:03.428Z,8.28
2018-12-20T22:01:30.912Z,8.73
2018-12-20T22:03:58.344Z,8.43
2018-12-20T22:06:25.793Z,8.93
2018-12-20T22:08:53.236Z,9.03
2018-12-20T22:11:20.676Z,8.93
2018-12-20T22:13:48.116Z,9.20
2018-12-20T22:16:15.555Z,9.33
2018-12-20T22:18:43.001Z,8.33
2018-12-20T22:21:10.428Z,8.73
2018-12-20T22:23:37.881Z,9.20
2018-12-20T22:26:05.324Z,8.77
2018-12-20T22:28:32.768Z,8.78
2018-12-20T22:31:00.209Z,9.33
2018-12-20T22:33:27.644Z,8.90
2018-12-20T22:35:55.075Z,8.30
2018-12-20T22:38:22.583Z,8.88
2018-12-20T22:40:50.021Z,8.90
2018-12-20T22:43:17.453Z,9.10
2018-12-20T22:45:44.911Z,8.00
2018-12-20T22:48:12.341Z,8.40
2018-12-20T22:50:39.797Z,8.53
2018-12-20T22:53:07.309Z,6.95
2018-12-20T22:55:34.741Z,6.43
2018-12-20T22:58:02.189Z,4.40
2018-12-20T23:00:29.632Z,4.20
2018-12-20T23:02:57.060Z,2.75
2018-12-20T23:05:24.517Z,3.10
2018-12-20T23:07:51.936Z,2.58
2018-12-20T23:10:19.374Z,2.60
2018-12-20T23:12:46.806Z,2.33
2018-12-20T23:15:14.241Z,2.30
2018-12-20T23:17:41.671Z,2.58
2018-12-20T23:20:09.117Z,2.20
2018-12-20T23:22:36.540Z,1.72
2018-12-20T23:25:04.052Z,1.90
2018-12-20T23:27:31.485Z,1.90
2018-12-20T23:29:58.928Z,1.80
2018-12-20T23:32:26.364Z,2.00
2018-12-20T23:34:53.802Z,1.87
2018-12-20T23:37:21.227Z,1.62
2018-12-20T23:39:48.660Z,1.90
2018-12-20T23:42:16.148Z,1.50
2018-12-20T23:44:43.580Z,1.50
2018-12-20T23:47:11.012Z,1.77
2018-12-20T23:49:38.687Z,1.70
2018-12-20T23:52:06.197Z,1.50
2018-12-20T23:54:33.628Z,1.87
2018-12-20T23:57:01.064Z,1.70
2018-12-20T23:59:28.499Z,1.60
